Time;durP1;ratioP1;P1;durP2;ratioP2;P2;SDS_P1;SDS_P2;PMS_P1;PMS_P2;Temp;Humidity;BMP_temperature;BMP_pressure;BME280_temperature;BME280_humidity;BME280_pressure;Samples;Min_cycle;Max_cycle;Signal;HPM_P1;HPM_P2
2021/12/05 00:24:36;;;;;;;18.38;4.40;;;;;;;4.18;63.66;98445.19;10538229;28;20074;-68
2021/12/05 00:29:47;;;;;;;11.60;3.60;;;;;;;4.16;63.80;98447.88;10519478;28;20052;-67
2021/12/05 00:56:46;;;;;;;13.52;4.05;;;;;;;4.22;63.70;98428.56;10501249;28;20047;-68
2021/12/05 01:07:29;;;;;;;14.30;3.87;;;;;;;4.21;63.51;98438.09;10531819;28;20080;-67
2021/12/05 01:18:07;;;;;;;14.43;4.32;;;;;;;4.17;63.46;98444.34;10535778;28;20062;-67
2021/12/05 01:23:28;;;;;;;11.07;2.88;;;;;;;4.21;63.40;98439.84;10542075;28;20058;-67
2021/12/05 01:44:45;;;;;;;16.42;3.95;;;;;;;4.06;63.80;98441.56;10532616;28;20044;-67
2021/12/05 02:47:57;;;;;;;14.00;3.42;;;;;;;3.44;64.26;98416.59;10524255;28;20052;-67
2021/12/05 02:53:13;;;;;;;15.15;3.08;;;;;;;3.38;64.29;98408.34;10526455;28;20051;-68
2021/12/05 02:58:31;;;;;;;12.95;3.20;;;;;;;3.36;64.33;98402.41;10524457;28;20048;-67
2021/12/05 03:03:34;;;;;;;12.18;2.60;;;;;;;3.32;64.28;98406.09;10505765;28;20059;-67
2021/12/05 03:08:36;;;;;;;10.93;2.30;;;;;;;3.25;64.36;98402.19;10556495;28;20054;-67
2021/12/05 03:13:42;;;;;;;12.45;2.60;;;;;;;3.23;64.34;98401.44;10535117;28;20056;-67
2021/12/05 03:18:44;;;;;;;11.60;2.90;;;;;;;3.13;64.20;98408.03;10526301;28;20052;-67
2021/12/05 03:23:48;;;;;;;11.35;2.80;;;;;;;3.09;64.30;98403.94;10540015;28;20131;-68
2021/12/05 03:28:51;;;;;;;11.63;2.45;;;;;;;3.03;64.35;98405.91;10528769;28;20089;-67
2021/12/05 03:33:54;;;;;;;13.52;2.92;;;;;;;3.07;64.43;98405.78;10556156;28;20057;-67
2021/12/05 03:38:57;;;;;;;10.13;2.65;;;;;;;2.97;64.61;98406.25;10534579;28;20048;-67
2021/12/05 03:44:00;;;;;;;14.05;2.85;;;;;;;2.97;64.64;98410.56;10530169;28;20135;-67
2021/12/05 03:49:07;;;;;;;9.75;2.80;;;;;;;3.11;64.45;98417.59;10537575;28;20671;-67
2021/12/05 03:54:09;;;;;;;11.95;2.78;;;;;;;3.36;64.25;98412.75;10556861;28;20051;-67
2021/12/05 03:59:12;;;;;;;10.10;2.47;;;;;;;3.52;64.08;98421.34;10540018;28;20054;-67
2021/12/05 04:04:17;;;;;;;11.95;2.55;;;;;;;3.66;63.59;98411.09;10521892;28;20051;-67
2021/12/05 04:09:20;;;;;;;15.32;2.30;;;;;;;3.79;63.08;98420.66;10529537;28;20834;-67
2021/12/05 04:14:24;;;;;;;9.95;2.22;;;;;;;3.87;62.68;98430.59;10539194;28;20160;-68
2021/12/05 04:19:26;;;;;;;10.20;2.35;;;;;;;3.99;62.54;98434.22;10533851;28;20050;-68
2021/12/05 04:24:28;;;;;;;11.18;2.40;;;;;;;3.91;62.59;98432.06;10539472;28;20054;-67
2021/12/05 04:29:32;;;;;;;12.20;2.80;;;;;;;3.94;62.81;98415.56;10546354;28;20200;-67
2021/12/05 04:34:33;;;;;;;12.35;2.70;;;;;;;3.99;63.00;98423.88;10547574;28;20406;-67
2021/12/05 04:39:37;;;;;;;8.52;2.80;;;;;;;4.08;63.12;98419.03;10520611;28;20068;-67
2021/12/05 04:44:39;;;;;;;10.52;2.10;;;;;;;4.06;63.03;98414.84;10538186;28;20048;-67
2021/12/05 04:49:41;;;;;;;10.38;2.42;;;;;;;4.03;63.12;98421.03;10523784;28;20077;-67
2021/12/05 04:54:43;;;;;;;13.55;2.80;;;;;;;4.01;62.95;98427.19;10522218;28;20063;-67
2021/12/05 04:59:49;;;;;;;7.50;2.05;;;;;;;3.98;63.36;98415.31;10544923;28;20040;-68
2021/12/05 05:04:51;;;;;;;10.68;2.20;;;;;;;4.03;63.12;98425.41;10514349;28;20040;-68
2021/12/05 05:10:01;;;;;;;9.82;2.58;;;;;;;4.06;63.02;98428.63;10517163;28;20482;-68
2021/12/05 05:15:05;;;;;;;11.57;2.38;;;;;;;4.06;63.12;98430.38;10551403;28;20074;-68
2021/12/05 05:21:01;;;;;;;15.25;2.45;;;;;;;4.18;63.11;98433.09;10513061;28;20052;-67
2021/12/05 05:47:25;;;;;;;9.27;2.30;;;;;;;3.69;63.26;98436.75;10502323;28;20130;-67
2021/12/05 05:52:29;;;;;;;11.23;2.38;;;;;;;3.86;63.24;98432.31;10524726;28;20040;-67
2021/12/05 06:08:12;;;;;;;7.82;2.30;;;;;;;3.96;63.58;98435.25;10526995;28;20044;-67
2021/12/05 06:13:17;;;;;;;9.13;2.50;;;;;;;3.70;63.30;98438.44;10511345;28;20074;-68
2021/12/05 06:18:20;;;;;;;9.05;1.92;;;;;;;3.44;63.58;98429.50;10526547;28;20047;-67
2021/12/05 06:23:21;;;;;;;10.27;2.08;;;;;;;3.41;63.86;98437.44;10533687;28;20059;-68
2021/12/05 06:28:38;;;;;;;7.93;2.03;;;;;;;3.39;64.15;98428.94;10508828;28;20074;-68
2021/12/05 06:49:43;;;;;;;10.90;2.30;;;;;;;2.54;64.90;98447.28;10537975;28;20048;-67
2021/12/05 06:55:05;;;;;;;10.05;2.50;;;;;;;2.35;65.07;98460.28;10530185;28;20063;-68
2021/12/05 07:00:11;;;;;;;8.07;2.17;;;;;;;2.44;64.85;98472.69;10548340;28;20043;-68
2021/12/05 07:05:34;;;;;;;11.32;2.25;;;;;;;2.35;64.62;98483.50;10510391;28;20123;-68
2021/12/05 07:16:16;;;;;;;8.68;2.42;;;;;;;2.74;64.87;98494.41;10496268;28;20308;-68
2021/12/05 07:42:42;;;;;;;10.63;2.50;;;;;;;2.66;65.42;98527.50;10510076;28;20143;-68
2021/12/05 07:47:46;;;;;;;8.48;2.88;;;;;;;2.79;65.33;98536.31;10528031;28;20585;-68
2021/12/05 07:52:52;;;;;;;61.22;27.10;;;;;;;2.74;65.71;98540.88;10531800;28;20071;-67
2021/12/05 07:58:13;;;;;;;14.80;5.03;;;;;;;2.89;65.53;98547.81;10515893;28;20056;-68
2021/12/05 08:19:18;;;;;;;7.57;2.27;;;;;;;3.32;65.47;98553.38;10554870;28;20055;-68
2021/12/05 08:24:20;;;;;;;5.90;2.30;;;;;;;3.60;65.03;98554.41;10529774;28;20047;-67
2021/12/05 08:29:32;;;;;;;14.38;5.53;;;;;;;3.82;64.73;98564.47;10526161;28;20040;-68
2021/12/05 09:39:33;;;;;;;8.03;2.00;;;;;;;5.56;61.87;98596.66;10549923;28;20066;-68
2021/12/05 10:16:27;;;;;;;4.55;1.83;;;;;;;6.29;59.53;98577.38;10358992;28;20414;-67
2021/12/05 10:37:50;;;;;;;4.00;1.42;;;;;;;6.54;58.39;98574.03;10384058;28;20582;-68
2021/12/05 10:42:54;;;;;;;5.77;2.70;;;;;;;6.71;57.52;98563.38;10383395;28;20052;-68
2021/12/05 10:48:05;;;;;;;3.25;1.50;;;;;;;6.70;57.68;98564.31;10384533;28;20158;-67
2021/12/05 10:53:26;;;;;;;2.88;1.30;;;;;;;6.71;56.74;98564.22;10383750;28;20076;-67
2021/12/05 10:58:40;;;;;;;5.10;1.40;;;;;;;6.70;56.79;98569.50;10382856;28;20136;-67
2021/12/05 11:03:44;;;;;;;4.10;1.60;;;;;;;6.76;56.37;98566.50;10380754;28;20045;-67
2021/12/05 11:08:46;;;;;;;5.18;1.45;;;;;;;6.67;56.55;98561.94;10382763;28;20273;-67
2021/12/05 11:13:49;;;;;;;2.47;1.20;;;;;;;6.72;56.02;98565.03;10383243;28;20049;-72
2021/12/05 11:18:50;;;;;;;3.45;1.35;;;;;;;6.78;56.43;98569.84;10382932;28;20049;-71
2021/12/05 11:24:35;;;;;;;3.97;1.50;;;;;;;6.78;55.54;98567.22;10376359;28;20059;-72
2021/12/05 11:30:00;;;;;;;2.20;1.10;;;;;;;6.89;54.99;98564.78;10341684;28;20054;-71
2021/12/05 11:35:34;;;;;;;3.40;1.27;;;;;;;6.97;55.03;98570.28;10375420;28;20057;-71
2021/12/05 11:40:59;;;;;;;3.05;1.38;;;;;;;6.84;55.38;98567.66;10377599;28;20553;-71
2021/12/05 11:46:14;;;;;;;3.63;1.30;;;;;;;6.92;55.13;98559.34;10378853;28;20496;-72
2021/12/05 11:51:24;;;;;;;6.78;1.50;;;;;;;6.98;55.01;98558.94;10384538;28;20063;-71
2021/12/05 11:56:32;;;;;;;4.40;1.60;;;;;;;7.22;54.18;98554.72;10381934;28;20071;-72
2021/12/05 12:01:47;;;;;;;2.97;1.25;;;;;;;7.24;54.32;98550.25;10387054;28;20486;-71
2021/12/05 12:07:13;;;;;;;3.10;1.45;;;;;;;7.16;53.84;98552.53;10383284;28;20045;-72
2021/12/05 12:12:16;;;;;;;2.17;1.00;;;;;;;7.03;54.40;98562.09;10388115;28;20059;-72
2021/12/05 12:17:18;;;;;;;4.45;1.50;;;;;;;6.89;54.78;98565.63;10387902;28;20061;-72
2021/12/05 12:22:22;;;;;;;3.08;1.40;;;;;;;6.63;55.20;98563.06;10388710;28;20054;-71
2021/12/05 12:27:24;;;;;;;3.33;1.50;;;;;;;6.33;56.11;98574.50;10385490;28;20047;-71
2021/12/05 12:32:32;;;;;;;3.75;1.90;;;;;;;6.21;56.89;98577.84;10385057;28;20128;-72
2021/12/05 12:37:52;;;;;;;5.05;2.33;;;;;;;6.04;57.69;98574.66;10386820;28;20132;-79
2021/12/05 12:42:54;;;;;;;5.30;2.83;;;;;;;6.29;57.83;98572.19;10386887;28;20049;-75
2021/12/05 12:47:58;;;;;;;5.60;3.08;;;;;;;6.47;57.58;98578.78;10388620;28;20045;-77
2021/12/05 12:53:02;;;;;;;4.60;1.90;;;;;;;6.74;56.85;98579.59;10388912;28;20989;-76
2021/12/05 12:58:08;;;;;;;5.65;2.10;;;;;;;6.90;57.11;98579.41;10385668;28;20124;-77
2021/12/05 13:04:01;;;;;;;5.47;2.90;;;;;;;6.79;56.66;98582.75;10387825;28;20128;-76
2021/12/05 13:14:00;;;;;;;6.70;2.40;;;;;;;6.26;57.19;98581.03;10384765;28;20648;-74
2021/12/05 13:19:10;;;;;;;6.65;2.67;;;;;;;6.19;56.89;98586.63;10385039;28;20063;-76
2021/12/05 13:24:25;;;;;;;8.23;3.83;;;;;;;6.10;56.68;98585.44;10382823;28;20059;-75
2021/12/05 13:29:29;;;;;;;3.67;1.50;;;;;;;6.12;56.20;98598.34;10382296;28;20146;-76
2021/12/05 13:34:40;;;;;;;3.47;1.63;;;;;;;6.29;56.25;98593.78;10383056;28;20049;-76
2021/12/05 13:39:47;;;;;;;2.55;1.35;;;;;;;6.41;56.00;98604.34;10386561;28;20127;-75
2021/12/05 13:45:04;;;;;;;2.50;1.20;;;;;;;6.38;55.23;98604.53;10386983;28;20473;-75
2021/12/05 13:50:40;;;;;;;4.53;2.08;;;;;;;6.35;57.05;98611.56;10385537;28;20049;-76
2021/12/05 13:55:59;;;;;;;6.53;1.70;;;;;;;6.44;56.47;98606.72;10385787;28;20164;-76
2021/12/05 14:01:04;;;;;;;7.22;2.80;;;;;;;6.50;55.98;98614.97;10386453;28;20183;-75
2021/12/05 14:06:29;;;;;;;6.55;3.25;;;;;;;6.49;55.92;98620.25;10383275;28;20053;-74
2021/12/05 14:11:32;;;;;;;4.40;2.20;;;;;;;6.40;56.36;98637.25;10385036;28;20449;-76
2021/12/05 14:16:39;;;;;;;3.90;2.20;;;;;;;6.42;56.40;98639.75;10384366;28;20221;-76
2021/12/05 14:21:45;;;;;;;9.68;5.43;;;;;;;6.30;56.40;98637.00;10375908;28;20501;-77
2021/12/05 14:26:53;;;;;;;10.32;4.72;;;;;;;6.32;56.65;98644.69;10400062;28;20511;-77
2021/12/05 14:32:06;;;;;;;5.70;2.60;;;;;;;6.24;55.84;98660.72;10383903;28;20053;-77
2021/12/05 14:37:16;;;;;;;3.67;1.88;;;;;;;6.21;56.31;98666.09;10380655;28;20045;-78
2021/12/05 14:42:24;;;;;;;4.55;2.42;;;;;;;6.15;56.83;98687.25;10384480;28;20041;-78
2021/12/05 14:47:30;;;;;;;3.50;1.60;;;;;;;6.10;56.36;98681.50;10374552;28;20541;-78
2021/12/05 14:52:36;;;;;;;6.97;3.78;;;;;;;6.11;57.47;98697.91;10379843;28;20046;-77
2021/12/05 14:57:45;;;;;;;8.02;3.70;;;;;;;6.08;57.17;98711.09;10380119;28;20080;-79
2021/12/05 15:02:47;;;;;;;13.63;6.63;;;;;;;5.96;57.54;98719.63;10382389;28;20054;-78
2021/12/05 15:07:59;;;;;;;13.80;7.07;;;;;;;5.74;57.25;98719.22;10386453;28;20346;-78
2021/12/05 15:13:01;;;;;;;9.40;4.72;;;;;;;5.66;57.77;98727.44;10383881;28;20316;-78
2021/12/05 15:18:05;;;;;;;19.17;8.68;;;;;;;5.37;58.14;98730.91;10377227;28;20057;-78
2021/12/05 15:23:10;;;;;;;13.95;7.47;;;;;;;5.24;59.25;98746.31;10376990;28;20052;-79
2021/12/05 15:28:14;;;;;;;16.08;7.88;;;;;;;5.10;59.25;98751.47;10389500;28;20160;-78
2021/12/05 15:33:21;;;;;;;18.25;7.65;;;;;;;5.07;59.32;98755.97;10387743;28;20056;-79
2021/12/05 15:38:27;;;;;;;5.25;2.33;;;;;;;5.00;59.50;98772.78;10379950;28;20493;-78
2021/12/05 15:43:32;;;;;;;3.40;1.73;;;;;;;4.87;59.82;98780.38;10388685;28;20823;-77
2021/12/05 15:48:35;;;;;;;3.42;1.73;;;;;;;4.76;60.28;98779.31;10389520;28;20056;-78
2021/12/05 15:53:40;;;;;;;4.25;1.90;;;;;;;4.85;60.63;98789.16;10389689;28;20503;-79
2021/12/05 15:58:45;;;;;;;8.38;3.55;;;;;;;4.94;60.82;98805.06;10390307;28;20060;-77
2021/12/05 16:03:57;;;;;;;9.02;3.30;;;;;;;4.81;61.60;98800.59;10389534;28;20065;-78
2021/12/05 16:09:11;;;;;;;4.68;2.65;;;;;;;4.63;61.81;98808.47;10389703;28;20438;-76
2021/12/05 16:14:15;;;;;;;4.18;2.35;;;;;;;4.60;61.80;98811.19;10387751;28;20513;-77
2021/12/05 16:19:17;;;;;;;4.75;2.30;;;;;;;4.62;61.80;98814.53;10384811;28;20394;-76
2021/12/05 16:24:23;;;;;;;3.15;1.90;;;;;;;4.74;61.29;98820.81;10385915;28;20049;-76
2021/12/05 16:29:25;;;;;;;3.65;1.70;;;;;;;4.65;61.72;98822.16;10389375;28;20136;-77
2021/12/05 16:34:30;;;;;;;3.30;1.90;;;;;;;4.81;62.02;98829.09;10383933;28;20056;-76
2021/12/05 16:39:51;;;;;;;3.83;1.80;;;;;;;4.89;61.61;98835.53;10383293;28;20461;-77
2021/12/05 16:44:58;;;;;;;4.82;2.45;;;;;;;4.99;61.63;98846.22;10386964;28;20136;-78
2021/12/05 16:50:03;;;;;;;3.85;1.92;;;;;;;4.99;61.33;98847.06;10387550;28;20660;-77
2021/12/05 16:55:24;;;;;;;4.38;2.38;;;;;;;4.99;61.29;98854.00;10387303;28;20141;-77
2021/12/05 17:00:30;;;;;;;5.00;3.15;;;;;;;4.96;61.33;98856.78;10380389;28;20060;-77
2021/12/05 17:05:44;;;;;;;5.45;2.97;;;;;;;4.84;61.52;98860.84;10380461;28;20072;-77
2021/12/05 17:10:50;;;;;;;6.30;3.95;;;;;;;4.70;61.84;98861.59;10382034;28;20049;-77
2021/12/05 17:16:01;;;;;;;5.53;3.67;;;;;;;4.70;62.53;98868.50;10374749;28;20072;-77
2021/12/05 17:21:06;;;;;;;5.95;3.47;;;;;;;4.76;62.24;98873.38;10370978;28;20088;-77
2021/12/05 17:26:10;;;;;;;3.88;2.80;;;;;;;4.82;62.10;98877.41;10381278;28;20151;-78
2021/12/05 17:31:15;;;;;;;5.45;2.70;;;;;;;4.77;61.46;98880.22;10382944;28;20051;-77
2021/12/05 17:36:31;;;;;;;3.83;2.50;;;;;;;4.74;61.99;98888.16;10383065;28;20151;-78
2021/12/05 17:41:33;;;;;;;3.85;2.38;;;;;;;4.75;62.05;98901.94;10380867;28;20052;-76
2021/12/05 17:46:37;;;;;;;5.60;4.00;;;;;;;4.73;62.53;98904.63;10381033;28;20127;-77
2021/12/05 17:51:41;;;;;;;7.10;4.20;;;;;;;4.58;62.30;98908.84;10378629;28;20266;-78
2021/12/05 17:56:49;;;;;;;5.68;3.00;;;;;;;4.55;62.10;98916.78;10384988;28;20049;-77
2021/12/05 18:07:14;;;;;;;8.45;4.47;;;;;;;4.56;62.72;98936.56;10384697;28;20209;-69
2021/12/05 18:12:22;;;;;;;10.75;6.78;;;;;;;4.59;63.06;98943.34;10384484;28;20046;-69
2021/12/05 18:17:24;;;;;;;8.52;4.57;;;;;;;4.59;63.18;98949.38;10384858;28;20061;-70
2021/12/05 18:22:25;;;;;;;4.70;2.95;;;;;;;4.49;63.46;98961.13;10385793;28;20076;-69
2021/12/05 18:27:27;;;;;;;5.10;3.30;;;;;;;4.35;63.25;98958.34;10385486;28;20063;-69
2021/12/05 18:32:29;;;;;;;6.00;3.65;;;;;;;4.39;63.44;98959.88;10384666;28;20116;-68
2021/12/05 18:37:31;;;;;;;6.03;3.33;;;;;;;4.46;63.59;98965.59;10384165;28;20057;-69
2021/12/05 18:42:33;;;;;;;6.28;3.97;;;;;;;4.49;63.64;98971.47;10382739;28;20045;-69
2021/12/05 18:47:34;;;;;;;7.55;4.45;;;;;;;4.51;63.49;98976.56;10383775;28;20052;-69
2021/12/05 18:52:37;;;;;;;8.25;4.68;;;;;;;4.43;63.58;98978.69;10384786;28;20503;-68
2021/12/05 18:57:42;;;;;;;8.02;5.45;;;;;;;4.36;63.82;98992.84;10384291;28;20053;-68
2021/12/05 19:13:11;;;;;;;10.88;4.95;;;;;;;4.37;63.82;99005.69;10383326;28;20325;-69
2021/12/05 19:18:15;;;;;;;4.38;3.40;;;;;;;4.43;63.90;99005.41;10383532;28;20057;-68
2021/12/05 19:23:17;;;;;;;6.18;3.72;;;;;;;4.43;63.90;99015.75;10384020;28;20053;-68
2021/12/05 19:28:18;;;;;;;9.55;5.57;;;;;;;4.38;64.09;99019.50;10383970;28;20440;-68
2021/12/05 19:33:24;;;;;;;12.98;6.00;;;;;;;4.37;63.98;99026.41;10381254;28;20417;-68
2021/12/05 19:38:27;;;;;;;9.02;5.00;;;;;;;4.35;64.14;99022.25;10376206;28;20045;-68
2021/12/05 19:43:31;;;;;;;8.98;5.93;;;;;;;4.33;64.16;99032.66;10381462;28;20061;-68
2021/12/05 19:48:34;;;;;;;18.33;11.70;;;;;;;4.33;63.93;99040.41;10378223;28;20049;-68
2021/12/05 19:53:39;;;;;;;11.65;7.15;;;;;;;4.17;63.98;99047.25;10377226;28;20413;-66
2021/12/05 19:58:41;;;;;;;9.30;6.03;;;;;;;4.13;64.66;99048.31;10384480;28;20053;-68
2021/12/05 20:03:44;;;;;;;10.13;5.35;;;;;;;4.15;64.51;99059.41;10386792;28;20053;-68
2021/12/05 20:08:49;;;;;;;8.65;5.63;;;;;;;4.17;64.34;99065.34;10387399;28;20778;-68
2021/12/05 20:13:57;;;;;;;11.82;6.53;;;;;;;4.21;64.51;99066.88;10388395;28;20049;-68
2021/12/05 20:19:00;;;;;;;12.38;9.02;;;;;;;4.20;64.42;99073.00;10385157;28;20157;-68
2021/12/05 20:24:03;;;;;;;14.73;10.90;;;;;;;4.17;64.59;99083.47;10386545;28;20038;-68
2021/12/05 20:29:08;;;;;;;15.32;9.63;;;;;;;4.09;64.89;99087.34;10383446;28;20543;-68
2021/12/05 20:34:10;;;;;;;17.58;10.55;;;;;;;4.10;64.62;99094.19;10389830;28;20476;-68
2021/12/05 20:39:12;;;;;;;14.65;9.10;;;;;;;4.03;64.89;99105.75;10387982;28;20046;-67
2021/12/05 20:44:14;;;;;;;13.63;8.93;;;;;;;4.05;64.82;99109.09;10388928;28;20048;-67
2021/12/05 20:49:16;;;;;;;12.35;8.68;;;;;;;3.98;65.13;99120.63;10390076;28;20048;-67
2021/12/05 20:54:19;;;;;;;16.58;10.35;;;;;;;3.89;64.88;99121.88;10388703;28;20144;-67
2021/12/05 20:59:20;;;;;;;13.27;8.80;;;;;;;3.78;65.17;99129.28;10388361;28;20416;-67
2021/12/05 21:04:22;;;;;;;11.95;8.80;;;;;;;3.87;65.16;99134.03;10388759;28;20045;-68
2021/12/05 21:09:24;;;;;;;13.23;9.30;;;;;;;3.91;65.26;99145.94;10387993;28;20795;-68
2021/12/05 21:14:26;;;;;;;13.23;9.60;;;;;;;3.98;64.99;99155.09;10387339;28;20136;-68
2021/12/05 21:19:28;;;;;;;13.65;10.07;;;;;;;3.90;64.79;99152.03;10388400;28;20079;-68
2021/12/05 21:24:30;;;;;;;15.30;10.55;;;;;;;3.77;65.32;99159.47;10382048;28;20046;-68
2021/12/05 21:29:32;;;;;;;15.75;11.18;;;;;;;3.78;65.50;99162.91;10380022;28;20051;-68
2021/12/05 21:34:53;;;;;;;14.95;11.07;;;;;;;3.75;65.60;99170.78;10378167;28;20049;-68
2021/12/05 21:39:55;;;;;;;16.92;10.70;;;;;;;3.94;65.56;99174.25;10383932;28;20049;-68
2021/12/05 21:44:57;;;;;;;17.15;11.30;;;;;;;3.99;65.23;99174.88;10379328;28;20073;-68
2021/12/05 21:49:59;;;;;;;16.08;11.95;;;;;;;3.82;65.40;99173.00;10377018;28;20053;-69
2021/12/05 21:55:02;;;;;;;16.30;12.35;;;;;;;3.82;65.69;99185.13;10381709;28;20209;-68
2021/12/05 22:00:08;;;;;;;17.33;11.80;;;;;;;3.93;65.55;99176.91;10383378;28;20444;-68
2021/12/05 22:05:11;;;;;;;15.52;10.88;;;;;;;3.85;65.64;99185.00;10378656;28;20295;-68
2021/12/05 22:10:14;;;;;;;18.58;12.50;;;;;;;3.89;65.74;99196.91;10379723;28;20057;-68
2021/12/05 22:15:19;;;;;;;15.80;11.90;;;;;;;3.87;65.85;99209.06;10384845;28;20640;-68
2021/12/05 22:20:26;;;;;;;14.77;11.38;;;;;;;3.87;65.87;99216.81;10382430;28;20630;-68
2021/12/05 22:25:29;;;;;;;21.63;12.13;;;;;;;3.90;65.83;99221.88;10383687;28;20061;-68
2021/12/05 22:30:35;;;;;;;19.40;13.52;;;;;;;3.98;65.66;99230.13;10382888;28;20045;-68
2021/12/05 22:35:37;;;;;;;14.68;11.13;;;;;;;4.03;65.58;99235.94;10381616;28;20131;-68
2021/12/05 22:40:40;;;;;;;17.85;13.05;;;;;;;4.02;65.66;99239.44;10384281;28;20045;-68
2021/12/05 22:45:42;;;;;;;16.98;11.85;;;;;;;3.87;65.63;99242.69;10383962;28;20137;-68
2021/12/05 22:50:44;;;;;;;19.40;13.18;;;;;;;3.92;65.69;99250.25;10383773;28;20048;-68
2021/12/05 22:55:46;;;;;;;14.85;11.43;;;;;;;3.98;65.58;99258.59;10384648;28;20057;-68
2021/12/05 23:00:54;;;;;;;18.08;12.07;;;;;;;3.88;65.83;99263.31;10383748;28;20407;-68
2021/12/05 23:05:57;;;;;;;15.40;10.65;;;;;;;3.84;65.95;99266.09;10383202;28;20049;-68
2021/12/05 23:11:00;;;;;;;14.60;11.25;;;;;;;3.94;65.75;99269.97;10382026;28;20409;-68
2021/12/05 23:16:03;;;;;;;19.25;12.05;;;;;;;3.96;65.54;99268.16;10384023;28;20054;-68
2021/12/05 23:21:13;;;;;;;15.02;10.85;;;;;;;3.92;65.43;99270.94;10380657;28;20041;-68
2021/12/05 23:26:19;;;;;;;17.83;11.80;;;;;;;3.85;65.57;99270.34;10391972;28;20335;-68
2021/12/05 23:31:21;;;;;;;16.10;12.43;;;;;;;3.82;65.53;99276.47;10391510;28;20085;-68
2021/12/05 23:36:23;;;;;;;23.38;15.13;;;;;;;3.68;65.78;99276.22;10390770;28;20145;-68
2021/12/05 23:41:26;;;;;;;23.33;14.73;;;;;;;3.66;65.86;99284.97;10392437;28;20037;-68
2021/12/05 23:46:27;;;;;;;19.65;13.73;;;;;;;3.64;65.75;99287.59;10389280;28;20429;-68
2021/12/05 23:51:29;;;;;;;21.58;13.00;;;;;;;3.61;65.66;99292.91;10391219;28;20124;-68
2021/12/05 23:56:32;;;;;;;16.13;11.68;;;;;;;3.60;65.85;99298.97;10390361;28;20045;-68
